Airport Name : Mwanza

Other Name : Mwanza

ICAO : HTMW

IATA : MWZ

FAA :

Latitude : -2.444486

Longitude : 32.932667

Country : Tanzania

Local Date and Time : 22 Oct 2020 20:54

 

TAF (Terminal Aerodrome Forecast)

HTMW 221700Z 2218/2318 32010KT FEW022 FEW023CB TEMPO 2303/2308 12010KT TSRA SCT021 FEW022CB BKN090

 

METAR (METeorological Aerodrome Report)

HTMW 221700Z 30010KT 9999 FEW022 FEW023CB 24/21 Q1013 NOSIG

HTMW 221600Z 30010KT 9999 FEW025 FEW026CB 24/20 Q1013 NOSIG

HTMW 221500Z 31013KT 9999 FEW025 FEW026CB 26/20 Q1013 NOSIG

HTMW 221400Z 31014KT 9999 FEW025 FEW026CB 27/19 Q1013 NOSIG

To Charter a Jet Click here.